createdAt,value
2023-03-22T00:00:27.672Z,20.33
2023-03-22T00:03:17.757Z,23.70
2023-03-22T00:05:45.434Z,20.73
2023-03-22T00:08:13.774Z,20.08
2023-03-22T00:10:42.289Z,20.58
2023-03-22T00:13:10.766Z,20.05
2023-03-22T00:15:38.117Z,20.13
2023-03-22T00:18:06.060Z,20.10
2023-03-22T00:20:38.165Z,20.23
2023-03-22T00:23:06.651Z,19.77
2023-03-22T00:25:33.993Z,20.58
2023-03-22T00:28:01.893Z,20.48
2023-03-22T00:30:29.219Z,19.80
2023-03-22T00:32:56.836Z,20.00
2023-03-22T00:35:23.811Z,21.52
2023-03-22T00:37:51.895Z,21.85
2023-03-22T00:40:19.374Z,20.33
2023-03-22T00:42:46.683Z,19.88
2023-03-22T00:45:14.079Z,20.80
2023-03-22T00:47:42.020Z,20.17
2023-03-22T00:50:09.412Z,21.48
2023-03-22T00:52:36.673Z,18.85
2023-03-22T00:55:04.092Z,20.52
2023-03-22T00:57:31.742Z,20.35
2023-03-22T00:59:59.137Z,21.50
2023-03-22T01:02:29.779Z,20.75
2023-03-22T01:04:57.291Z,21.13
2023-03-22T01:07:24.922Z,22.30
2023-03-22T01:09:52.297Z,21.88
2023-03-22T01:12:20.835Z,22.60
2023-03-22T01:14:48.359Z,21.98
2023-03-22T01:17:16.044Z,22.30
2023-03-22T01:19:43.536Z,23.23
2023-03-22T01:22:11.167Z,21.75
2023-03-22T01:24:38.523Z,21.58
2023-03-22T01:27:05.913Z,22.40
2023-03-22T01:29:33.077Z,21.42
2023-03-22T01:32:01.154Z,22.05
2023-03-22T01:34:28.535Z,20.08
2023-03-22T01:36:56.247Z,23.63
2023-03-22T01:39:23.308Z,22.63
2023-03-22T01:41:50.584Z,20.95
2023-03-22T01:44:20.389Z,22.08
2023-03-22T01:46:49.690Z,21.20
2023-03-22T01:49:31.120Z,21.50
2023-03-22T01:52:09.013Z,18.73
2023-03-22T01:54:36.563Z,18.98
2023-03-22T01:57:04.560Z,18.05
2023-03-22T01:59:31.752Z,17.88
2023-03-22T02:02:03.032Z,17.20
2023-03-22T02:04:39.235Z,18.23
2023-03-22T02:07:10.283Z,18.48
2023-03-22T02:09:42.284Z,17.30
2023-03-22T02:12:50.460Z,19.10
2023-03-22T02:15:33.890Z,17.70
2023-03-22T02:18:11.384Z,18.75
2023-03-22T02:20:41.902Z,18.40
2023-03-22T02:23:27.819Z,19.05
2023-03-22T02:26:36.143Z,20.30
2023-03-22T02:29:04.104Z,19.80
2023-03-22T02:31:49.946Z,20.17
2023-03-22T02:34:44.508Z,19.67
2023-03-22T02:37:37.708Z,18.73
2023-03-22T02:40:25.968Z,17.40
2023-03-22T02:43:04.280Z,18.38
2023-03-22T02:45:39.407Z,18.58
2023-03-22T02:48:32.800Z,17.73
2023-03-22T02:53:40.893Z,18.73
2023-03-22T02:56:24.618Z,17.02
2023-03-22T03:01:58.262Z,19.35
2023-03-22T03:04:30.078Z,18.08
2023-03-22T03:07:04.382Z,17.45
2023-03-22T03:09:33.015Z,18.25
2023-03-22T03:12:00.634Z,20.35
2023-03-22T03:14:30.345Z,20.55
2023-03-22T03:17:13.273Z,19.88
2023-03-22T03:20:08.219Z,21.15
2023-03-22T03:22:44.536Z,19.70
2023-03-22T03:25:14.737Z,21.25
2023-03-22T03:27:51.010Z,19.55
2023-03-22T03:30:27.238Z,20.35
2023-03-22T03:32:59.281Z,23.63
2023-03-22T03:35:43.958Z,20.63
2023-03-22T03:38:21.381Z,20.80
2023-03-22T03:40:54.710Z,21.17
2023-03-22T03:43:23.512Z,21.98
2023-03-22T03:45:51.937Z,20.05
2023-03-22T03:48:22.306Z,22.02
2023-03-22T03:50:52.965Z,20.05
2023-03-22T03:53:20.254Z,20.88
2023-03-22T03:55:47.335Z,22.27
2023-03-22T03:58:16.773Z,21.98
2023-03-22T04:00:46.423Z,20.50
2023-03-22T04:03:15.035Z,22.60
2023-03-22T04:05:42.040Z,18.67
2023-03-22T04:08:09.725Z,20.63
2023-03-22T04:10:37.250Z,20.52
2023-03-22T04:13:05.002Z,21.08
2023-03-22T04:15:32.797Z,21.00
2023-03-22T04:18:00.416Z,18.88
2023-03-22T04:20:27.887Z,19.05
2023-03-22T04:22:55.712Z,20.77
2023-03-22T04:25:22.941Z,19.15
2023-03-22T04:27:51.437Z,22.98
2023-03-22T04:30:22.374Z,21.45
2023-03-22T04:32:50.251Z,22.67
2023-03-22T04:35:17.633Z,19.45
2023-03-22T04:37:45.744Z,21.27
2023-03-22T04:40:15.953Z,21.33
2023-03-22T04:42:44.613Z,21.38
2023-03-22T04:45:13.265Z,21.00
2023-03-22T04:47:40.793Z,20.80
2023-03-22T04:50:08.540Z,20.10
2023-03-22T04:52:35.839Z,22.00
2023-03-22T04:55:02.864Z,22.00
2023-03-22T04:57:31.005Z,22.88
2023-03-22T04:59:58.414Z,20.60
2023-03-22T05:02:26.434Z,19.95
2023-03-22T05:04:53.466Z,20.85
2023-03-22T05:07:20.691Z,20.50
2023-03-22T05:09:48.084Z,21.05
2023-03-22T05:12:15.761Z,21.00
2023-03-22T05:14:43.228Z,22.00
2023-03-22T05:17:11.129Z,20.80
2023-03-22T05:19:38.514Z,21.13
2023-03-22T05:22:06.143Z,22.40
2023-03-22T05:24:33.526Z,21.58
2023-03-22T05:27:03.741Z,22.73
2023-03-22T05:29:36.824Z,23.08
2023-03-22T05:32:04.687Z,21.25
2023-03-22T05:34:35.815Z,21.67
2023-03-22T05:37:03.982Z,22.77
2023-03-22T05:39:31.415Z,22.33
2023-03-22T05:41:59.100Z,22.83
2023-03-22T05:44:26.491Z,21.75
2023-03-22T05:46:54.074Z,22.10
2023-03-22T05:49:21.485Z,22.55
2023-03-22T05:51:48.849Z,24.33
2023-03-22T05:54:16.312Z,22.60
2023-03-22T05:56:44.298Z,24.23
2023-03-22T05:59:11.699Z,25.25
2023-03-22T06:01:39.541Z,22.90
2023-03-22T06:04:06.863Z,24.90
2023-03-22T06:06:34.546Z,24.85
2023-03-22T06:09:15.950Z,23.27
2023-03-22T06:11:44.883Z,24.73
2023-03-22T06:14:12.086Z,24.50
2023-03-22T06:16:39.897Z,25.13
2023-03-22T06:19:07.338Z,25.65
2023-03-22T06:21:35.025Z,24.80
2023-03-22T06:24:01.959Z,26.77
2023-03-22T06:26:29.624Z,26.98
2023-03-22T06:28:56.971Z,26.65
2023-03-22T06:31:24.217Z,26.48
2023-03-22T06:33:52.285Z,27.13
2023-03-22T06:36:21.154Z,26.90
2023-03-22T06:38:48.529Z,26.80
2023-03-22T06:41:16.464Z,25.70
2023-03-22T06:43:43.812Z,25.77
2023-03-22T06:46:11.556Z,26.60
2023-03-22T06:48:39.227Z,27.58
2023-03-22T06:51:06.808Z,28.17
2023-03-22T06:53:34.273Z,28.33
2023-03-22T06:56:01.932Z,115.20
2023-03-22T06:58:29.334Z,197.10
2023-03-22T07:00:57.296Z,205.98
2023-03-22T07:03:24.604Z,427.58
2023-03-22T07:05:52.289Z,320.83
2023-03-22T07:08:19.351Z,155.25
2023-03-22T07:10:51.058Z,82.60
2023-03-22T07:13:18.171Z,60.33
2023-03-22T07:15:45.773Z,90.30
2023-03-22T07:18:13.477Z,378.05
2023-03-22T07:20:42.501Z,298.55
2023-03-22T07:23:10.937Z,235.52
2023-03-22T07:25:38.608Z,136.13
2023-03-22T07:28:06.998Z,99.18
2023-03-22T07:30:37.572Z,111.32
2023-03-22T07:33:06.640Z,68.20
2023-03-22T07:35:34.307Z,683.47
2023-03-22T07:38:01.752Z,209.85
2023-03-22T07:40:29.260Z,75.70
2023-03-22T07:42:56.733Z,73.97
2023-03-22T07:45:24.767Z,75.95
2023-03-22T07:47:51.776Z,61.53
2023-03-22T07:50:19.589Z,59.00
2023-03-22T07:52:46.982Z,45.88
2023-03-22T07:55:14.861Z,34.78
2023-03-22T07:57:41.999Z,31.42
2023-03-22T08:00:10.663Z,30.02
2023-03-22T08:02:38.823Z,28.65
2023-03-22T08:05:07.312Z,30.13
2023-03-22T08:07:34.535Z,32.50
2023-03-22T08:10:02.205Z,31.42
2023-03-22T08:12:29.609Z,31.23
2023-03-22T08:14:57.423Z,31.30
2023-03-22T08:17:26.085Z,30.83
2023-03-22T08:19:56.913Z,31.63
2023-03-22T08:22:25.979Z,30.63
2023-03-22T08:24:53.234Z,29.70
2023-03-22T08:27:20.991Z,29.08
2023-03-22T08:29:49.072Z,353.65
2023-03-22T08:32:17.469Z,290.98
2023-03-22T08:34:45.692Z,212.93
2023-03-22T08:37:13.549Z,104.40
2023-03-22T08:39:41.522Z,123.05
2023-03-22T08:42:08.902Z,101.30
2023-03-22T08:44:36.985Z,53.45
2023-03-22T08:47:04.437Z,74.50
2023-03-22T08:49:32.364Z,41.50
2023-03-22T08:51:59.823Z,50.80
2023-03-22T08:54:33.674Z,30.42
2023-03-22T08:57:03.281Z,31.38
2023-03-22T08:59:30.738Z,37.30
2023-03-22T09:01:58.328Z,29.05
2023-03-22T09:04:26.464Z,21.92
2023-03-22T09:06:54.205Z,21.48
2023-03-22T09:09:22.396Z,19.83
2023-03-22T09:11:49.371Z,19.80
2023-03-22T09:14:17.066Z,18.95
2023-03-22T09:16:45.638Z,19.27
2023-03-22T09:19:12.933Z,18.75
2023-03-22T09:21:40.358Z,18.10
2023-03-22T09:24:08.666Z,17.35
2023-03-22T09:26:37.050Z,18.27
2023-03-22T09:29:04.760Z,18.38
2023-03-22T09:31:32.222Z,19.50
2023-03-22T09:34:00.364Z,22.35
2023-03-22T09:36:27.845Z,24.65
2023-03-22T09:38:56.476Z,126.47
2023-03-22T09:41:54.999Z,156.40
2023-03-22T09:44:43.705Z,136.27
2023-03-22T09:47:20.155Z,220.93
2023-03-22T09:49:53.974Z,143.18
2023-03-22T09:52:21.901Z,60.70
2023-03-22T09:54:51.490Z,82.65
2023-03-22T09:57:37.984Z,44.55
2023-03-22T10:00:24.276Z,57.97
2023-03-22T10:03:16.385Z,44.30
2023-03-22T10:05:54.746Z,30.38
2023-03-22T10:08:54.464Z,24.52
2023-03-22T10:11:25.877Z,20.40
2023-03-22T10:14:30.332Z,20.90
2023-03-22T10:16:59.579Z,19.33
2023-03-22T10:19:30.216Z,17.15
2023-03-22T10:22:02.250Z,19.20
2023-03-22T10:24:33.925Z,17.80
2023-03-22T10:27:02.688Z,17.07
2023-03-22T10:29:39.746Z,17.05
2023-03-22T10:32:16.866Z,17.15
2023-03-22T10:34:44.583Z,15.13
2023-03-22T10:37:18.198Z,16.30
2023-03-22T10:42:25.056Z,16.80
2023-03-22T10:45:00.332Z,16.30
2023-03-22T10:48:00.682Z,14.50
2023-03-22T10:50:36.584Z,14.07
2023-03-22T10:53:13.264Z,13.48
2023-03-22T10:55:41.731Z,13.80
2023-03-22T10:58:14.695Z,14.20
2023-03-22T11:00:53.197Z,14.82
2023-03-22T11:03:36.387Z,14.70
2023-03-22T11:06:11.039Z,15.35
2023-03-22T11:08:50.546Z,15.45
2023-03-22T11:11:28.132Z,13.07
2023-03-22T11:14:14.115Z,14.07
2023-03-22T11:16:55.401Z,13.20
2023-03-22T11:19:27.290Z,14.38
2023-03-22T11:21:59.240Z,12.85
2023-03-22T11:24:28.302Z,13.40
2023-03-22T11:27:16.261Z,13.45
2023-03-22T11:29:45.880Z,13.18
2023-03-22T11:32:35.828Z,13.85
2023-03-22T11:35:14.092Z,14.10
2023-03-22T11:37:42.974Z,13.60
2023-03-22T11:40:15.616Z,14.07
2023-03-22T11:42:43.054Z,14.38
2023-03-22T11:45:29.530Z,14.23
2023-03-22T11:48:03.246Z,14.40
2023-03-22T11:50:34.618Z,13.48
2023-03-22T11:53:03.344Z,12.52
2023-03-22T11:55:31.856Z,13.25
2023-03-22T11:57:59.387Z,14.25
2023-03-22T12:00:33.316Z,12.70
2023-03-22T12:03:06.957Z,13.55
2023-03-22T12:05:37.399Z,13.10
2023-03-22T12:08:16.250Z,12.55
2023-03-22T12:10:48.138Z,13.32
2023-03-22T12:13:44.952Z,13.63
2023-03-22T12:16:20.227Z,11.73
2023-03-22T12:19:38.075Z,12.05
2023-03-22T12:22:13.082Z,10.82
2023-03-22T12:24:41.770Z,10.23
2023-03-22T12:27:23.135Z,10.32
2023-03-22T12:29:59.392Z,10.40
2023-03-22T12:32:32.409Z,9.68
2023-03-22T12:35:16.038Z,9.35
2023-03-22T12:37:49.609Z,10.48
2023-03-22T12:40:41.787Z,11.35
2023-03-22T12:43:18.880Z,10.77
2023-03-22T12:45:53.221Z,9.85
2023-03-22T12:48:36.501Z,10.23
2023-03-22T12:51:07.313Z,10.38
2023-03-22T12:53:50.787Z,9.57
2023-03-22T12:56:26.493Z,10.25
2023-03-22T12:59:01.337Z,9.98
2023-03-22T13:01:52.269Z,9.18
2023-03-22T13:04:37.769Z,11.05
2023-03-22T13:07:13.691Z,9.85
2023-03-22T13:09:49.274Z,9.77
2023-03-22T13:12:16.763Z,10.05
2023-03-22T13:15:01.203Z,9.70
2023-03-22T13:17:28.641Z,9.88
2023-03-22T13:20:01.957Z,10.05
2023-03-22T13:24:58.931Z,8.80
2023-03-22T13:27:46.051Z,9.68
2023-03-22T13:30:35.295Z,9.73
2023-03-22T13:33:21.313Z,9.15
2023-03-22T13:35:56.633Z,9.90
2023-03-22T13:38:24.981Z,7.32
2023-03-22T13:41:09.186Z,7.22
2023-03-22T13:43:57.611Z,7.22
2023-03-22T13:46:36.925Z,7.88
2023-03-22T13:49:04.387Z,6.90
2023-03-22T13:51:32.731Z,7.00
2023-03-22T13:54:16.544Z,6.68
2023-03-22T13:56:52.250Z,7.07
2023-03-22T13:59:29.771Z,8.02
2023-03-22T14:02:08.372Z,7.55
2023-03-22T14:05:14.979Z,6.53
2023-03-22T14:07:52.888Z,8.68
2023-03-22T14:10:41.679Z,7.78
2023-03-22T14:13:21.528Z,8.15
2023-03-22T14:15:55.923Z,8.63
2023-03-22T14:18:26.731Z,10.25
2023-03-22T14:21:01.207Z,8.90
